sensor_id;sensor_type;location;lat;lon;timestamp;temperature;humidity
10046;DHT22;5063;50.878;4.742;2023-09-30T00:02:14;11.70;99.90
10046;DHT22;5063;50.878;4.742;2023-09-30T00:04:39;11.70;99.90
10046;DHT22;5063;50.878;4.742;2023-09-30T00:07:05;11.70;99.90
10046;DHT22;5063;50.878;4.742;2023-09-30T00:09:31;11.80;99.90
10046;DHT22;5063;50.878;4.742;2023-09-30T00:11:57;11.90;99.90
10046;DHT22;5063;50.878;4.742;2023-09-30T00:14:22;12.00;99.90
10046;DHT22;5063;50.878;4.742;2023-09-30T00:16:48;12.20;99.90
10046;DHT22;5063;50.878;4.742;2023-09-30T00:19:14;12.30;99.90
10046;DHT22;5063;50.878;4.742;2023-09-30T00:21:40;12.40;99.90
10046;DHT22;5063;50.878;4.742;2023-09-30T00:24:06;12.50;99.90
10046;DHT22;5063;50.878;4.742;2023-09-30T00:26:32;12.60;99.90
10046;DHT22;5063;50.878;4.742;2023-09-30T00:28:58;12.60;99.90
10046;DHT22;5063;50.878;4.742;2023-09-30T00:31:23;12.60;99.90
10046;DHT22;5063;50.878;4.742;2023-09-30T00:33:49;12.50;99.90
10046;DHT22;5063;50.878;4.742;2023-09-30T00:36:15;12.50;99.90
10046;DHT22;5063;50.878;4.742;2023-09-30T00:38:42;12.40;99.90
10046;DHT22;5063;50.878;4.742;2023-09-30T00:41:07;12.30;99.90
10046;DHT22;5063;50.878;4.742;2023-09-30T00:43:33;12.20;99.90
10046;DHT22;5063;50.878;4.742;2023-09-30T00:48:34;12.10;99.90
10046;DHT22;5063;50.878;4.742;2023-09-30T00:51:00;12.00;99.90
10046;DHT22;5063;50.878;4.742;2023-09-30T00:53:26;11.90;99.90
10046;DHT22;5063;50.878;4.742;2023-09-30T00:55:52;11.90;99.90
10046;DHT22;5063;50.878;4.742;2023-09-30T00:58:20;11.90;99.90
10046;DHT22;5063;50.878;4.742;2023-09-30T01:00:47;11.90;99.90
10046;DHT22;5063;50.878;4.742;2023-09-30T01:03:12;11.90;99.90
10046;DHT22;5063;50.878;4.742;2023-09-30T01:05:38;12.00;99.90
10046;DHT22;5063;50.878;4.742;2023-09-30T01:08:04;12.10;99.90
10046;DHT22;5063;50.878;4.742;2023-09-30T01:10:30;12.20;99.90
10046;DHT22;5063;50.878;4.742;2023-09-30T01:12:55;12.30;99.90
10046;DHT22;5063;50.878;4.742;2023-09-30T01:15:21;12.30;99.90
10046;DHT22;5063;50.878;4.742;2023-09-30T01:17:47;12.30;99.90
10046;DHT22;5063;50.878;4.742;2023-09-30T01:20:14;12.30;99.90
10046;DHT22;5063;50.878;4.742;2023-09-30T01:22:45;12.40;99.90
10046;DHT22;5063;50.878;4.742;2023-09-30T01:25:11;12.40;99.90
10046;DHT22;5063;50.878;4.742;2023-09-30T01:27:37;12.50;99.90
10046;DHT22;5063;50.878;4.742;2023-09-30T01:30:02;12.50;99.90
10046;DHT22;5063;50.878;4.742;2023-09-30T01:32:28;12.50;99.90
10046;DHT22;5063;50.878;4.742;2023-09-30T01:34:54;12.60;99.90
10046;DHT22;5063;50.878;4.742;2023-09-30T01:37:19;12.60;99.90
10046;DHT22;5063;50.878;4.742;2023-09-30T01:39:45;12.50;99.90
10046;DHT22;5063;50.878;4.742;2023-09-30T01:42:11;12.50;99.90
10046;DHT22;5063;50.878;4.742;2023-09-30T01:44:37;12.50;99.90
10046;DHT22;5063;50.878;4.742;2023-09-30T01:47:02;12.50;99.90
10046;DHT22;5063;50.878;4.742;2023-09-30T01:49:28;12.50;99.90
10046;DHT22;5063;50.878;4.742;2023-09-30T01:51:54;12.50;99.90
10046;DHT22;5063;50.878;4.742;2023-09-30T01:54:20;12.50;99.90
10046;DHT22;5063;50.878;4.742;2023-09-30T01:56:45;12.50;99.90
10046;DHT22;5063;50.878;4.742;2023-09-30T01:59:11;12.50;99.90
10046;DHT22;5063;50.878;4.742;2023-09-30T02:01:37;12.40;99.90
10046;DHT22;5063;50.878;4.742;2023-09-30T02:04:03;12.40;99.90
10046;DHT22;5063;50.878;4.742;2023-09-30T02:06:28;12.40;99.90
10046;DHT22;5063;50.878;4.742;2023-09-30T02:08:54;12.40;99.90
10046;DHT22;5063;50.878;4.742;2023-09-30T02:11:19;12.40;99.90
10046;DHT22;5063;50.878;4.742;2023-09-30T02:13:45;12.30;99.90
10046;DHT22;5063;50.878;4.742;2023-09-30T02:16:12;12.40;99.90
10046;DHT22;5063;50.878;4.742;2023-09-30T02:18:38;12.30;99.90
10046;DHT22;5063;50.878;4.742;2023-09-30T02:21:04;12.30;99.90
10046;DHT22;5063;50.878;4.742;2023-09-30T02:23:30;12.30;99.90
10046;DHT22;5063;50.878;4.742;2023-09-30T02:25:56;12.30;99.90
10046;DHT22;5063;50.878;4.742;2023-09-30T02:28:22;12.20;99.90
10046;DHT22;5063;50.878;4.742;2023-09-30T02:30:47;12.10;99.90
10046;DHT22;5063;50.878;4.742;2023-09-30T02:33:14;12.10;99.90
10046;DHT22;5063;50.878;4.742;2023-09-30T02:35:44;12.10;99.90
10046;DHT22;5063;50.878;4.742;2023-09-30T02:38:11;12.10;99.90
10046;DHT22;5063;50.878;4.742;2023-09-30T02:40:37;12.10;99.90
10046;DHT22;5063;50.878;4.742;2023-09-30T02:43:03;12.10;99.90
10046;DHT22;5063;50.878;4.742;2023-09-30T02:45:29;12.10;99.90
10046;DHT22;5063;50.878;4.742;2023-09-30T02:47:55;12.10;99.90
10046;DHT22;5063;50.878;4.742;2023-09-30T02:50:21;12.20;99.90
10046;DHT22;5063;50.878;4.742;2023-09-30T02:52:46;12.20;99.90
10046;DHT22;5063;50.878;4.742;2023-09-30T02:55:12;12.20;99.90
10046;DHT22;5063;50.878;4.742;2023-09-30T02:57:39;12.20;99.90
10046;DHT22;5063;50.878;4.742;2023-09-30T03:00:06;12.30;99.90
10046;DHT22;5063;50.878;4.742;2023-09-30T03:02:55;12.40;99.90
10046;DHT22;5063;50.878;4.742;2023-09-30T03:05:22;12.30;99.90
10046;DHT22;5063;50.878;4.742;2023-09-30T03:07:49;12.20;99.90
10046;DHT22;5063;50.878;4.742;2023-09-30T03:10:16;12.20;99.90
10046;DHT22;5063;50.878;4.742;2023-09-30T03:12:49;12.10;99.90
10046;DHT22;5063;50.878;4.742;2023-09-30T03:15:16;12.10;99.90
10046;DHT22;5063;50.878;4.742;2023-09-30T03:17:42;12.10;99.90
10046;DHT22;5063;50.878;4.742;2023-09-30T03:20:09;12.20;99.90
10046;DHT22;5063;50.878;4.742;2023-09-30T03:22:40;12.30;99.90
10046;DHT22;5063;50.878;4.742;2023-09-30T03:25:06;12.30;99.90
10046;DHT22;5063;50.878;4.742;2023-09-30T03:27:36;12.30;99.90
10046;DHT22;5063;50.878;4.742;2023-09-30T03:30:05;12.20;99.90
10046;DHT22;5063;50.878;4.742;2023-09-30T03:32:31;12.20;99.90
10046;DHT22;5063;50.878;4.742;2023-09-30T03:34:59;12.20;99.90
10046;DHT22;5063;50.878;4.742;2023-09-30T03:37:27;12.20;99.90
10046;DHT22;5063;50.878;4.742;2023-09-30T03:39:54;12.10;99.90
10046;DHT22;5063;50.878;4.742;2023-09-30T03:42:20;12.00;99.90
10046;DHT22;5063;50.878;4.742;2023-09-30T03:44:46;12.00;99.90
10046;DHT22;5063;50.878;4.742;2023-09-30T03:47:18;11.90;99.90
10046;DHT22;5063;50.878;4.742;2023-09-30T03:49:43;11.90;99.90
10046;DHT22;5063;50.878;4.742;2023-09-30T03:52:10;11.80;99.90
10046;DHT22;5063;50.878;4.742;2023-09-30T03:54:36;11.80;99.90
10046;DHT22;5063;50.878;4.742;2023-09-30T03:57:03;11.80;99.90
10046;DHT22;5063;50.878;4.742;2023-09-30T03:59:29;11.80;99.90
10046;DHT22;5063;50.878;4.742;2023-09-30T04:01:56;11.70;99.90
10046;DHT22;5063;50.878;4.742;2023-09-30T04:04:23;11.70;99.90
10046;DHT22;5063;50.878;4.742;2023-09-30T04:06:48;11.70;99.90
10046;DHT22;5063;50.878;4.742;2023-09-30T04:09:17;11.60;99.90
10046;DHT22;5063;50.878;4.742;2023-09-30T04:11:43;11.60;99.90
10046;DHT22;5063;50.878;4.742;2023-09-30T04:14:09;11.60;99.90
10046;DHT22;5063;50.878;4.742;2023-09-30T04:16:36;11.50;99.90
10046;DHT22;5063;50.878;4.742;2023-09-30T04:19:03;11.60;99.90
10046;DHT22;5063;50.878;4.742;2023-09-30T04:21:29;11.60;99.90
10046;DHT22;5063;50.878;4.742;2023-09-30T04:23:59;11.60;99.90
10046;DHT22;5063;50.878;4.742;2023-09-30T04:26:25;11.60;99.90
10046;DHT22;5063;50.878;4.742;2023-09-30T04:28:51;11.60;99.90
10046;DHT22;5063;50.878;4.742;2023-09-30T04:31:18;11.50;99.90
10046;DHT22;5063;50.878;4.742;2023-09-30T04:33:44;11.50;99.90
10046;DHT22;5063;50.878;4.742;2023-09-30T04:36:10;11.50;99.90
10046;DHT22;5063;50.878;4.742;2023-09-30T04:38:36;11.50;99.90
10046;DHT22;5063;50.878;4.742;2023-09-30T04:41:05;11.50;99.90
10046;DHT22;5063;50.878;4.742;2023-09-30T04:43:33;11.50;99.90
10046;DHT22;5063;50.878;4.742;2023-09-30T04:45:59;11.50;99.90
10046;DHT22;5063;50.878;4.742;2023-09-30T04:48:24;11.50;99.90
10046;DHT22;5063;50.878;4.742;2023-09-30T04:50:50;11.50;99.90
10046;DHT22;5063;50.878;4.742;2023-09-30T04:53:20;11.40;99.90
10046;DHT22;5063;50.878;4.742;2023-09-30T04:55:46;11.40;99.90
10046;DHT22;5063;50.878;4.742;2023-09-30T04:58:14;11.40;99.90
10046;DHT22;5063;50.878;4.742;2023-09-30T05:00:40;11.40;99.90
10046;DHT22;5063;50.878;4.742;2023-09-30T05:03:06;11.40;99.90
10046;DHT22;5063;50.878;4.742;2023-09-30T05:05:32;11.30;99.90
10046;DHT22;5063;50.878;4.742;2023-09-30T05:07:59;11.30;99.90
10046;DHT22;5063;50.878;4.742;2023-09-30T05:10:25;11.30;99.90
10046;DHT22;5063;50.878;4.742;2023-09-30T05:12:51;11.30;99.90
10046;DHT22;5063;50.878;4.742;2023-09-30T05:15:20;11.30;99.90
10046;DHT22;5063;50.878;4.742;2023-09-30T05:17:46;11.20;99.90
10046;DHT22;5063;50.878;4.742;2023-09-30T05:20:14;11.20;99.90
10046;DHT22;5063;50.878;4.742;2023-09-30T05:22:42;11.20;99.90
10046;DHT22;5063;50.878;4.742;2023-09-30T05:25:12;11.20;99.90
10046;DHT22;5063;50.878;4.742;2023-09-30T05:27:38;11.20;99.90
10046;DHT22;5063;50.878;4.742;2023-09-30T05:30:05;11.20;99.90
10046;DHT22;5063;50.878;4.742;2023-09-30T05:32:32;11.20;99.90
10046;DHT22;5063;50.878;4.742;2023-09-30T05:34:58;11.30;99.90
10046;DHT22;5063;50.878;4.742;2023-09-30T05:37:24;11.30;99.90
10046;DHT22;5063;50.878;4.742;2023-09-30T05:39:50;11.30;99.90
10046;DHT22;5063;50.878;4.742;2023-09-30T05:42:16;11.30;99.90
10046;DHT22;5063;50.878;4.742;2023-09-30T05:44:44;11.40;99.90
10046;DHT22;5063;50.878;4.742;2023-09-30T05:47:10;11.40;99.90
10046;DHT22;5063;50.878;4.742;2023-09-30T05:49:36;11.40;99.90
10046;DHT22;5063;50.878;4.742;2023-09-30T05:52:02;11.40;99.90
10046;DHT22;5063;50.878;4.742;2023-09-30T05:54:28;11.50;99.90
10046;DHT22;5063;50.878;4.742;2023-09-30T05:56:54;11.50;99.90
10046;DHT22;5063;50.878;4.742;2023-09-30T05:59:20;11.50;99.90
10046;DHT22;5063;50.878;4.742;2023-09-30T06:01:46;11.50;99.90
10046;DHT22;5063;50.878;4.742;2023-09-30T06:04:12;11.50;99.90
10046;DHT22;5063;50.878;4.742;2023-09-30T06:06:38;11.60;99.90
10046;DHT22;5063;50.878;4.742;2023-09-30T06:09:04;11.60;99.90
10046;DHT22;5063;50.878;4.742;2023-09-30T06:11:33;11.70;99.90
10046;DHT22;5063;50.878;4.742;2023-09-30T06:13:59;11.60;99.90
10046;DHT22;5063;50.878;4.742;2023-09-30T06:16:27;11.70;99.90
10046;DHT22;5063;50.878;4.742;2023-09-30T06:18:53;11.70;99.90
10046;DHT22;5063;50.878;4.742;2023-09-30T06:21:20;11.70;99.90
10046;DHT22;5063;50.878;4.742;2023-09-30T06:23:47;11.80;99.90
10046;DHT22;5063;50.878;4.742;2023-09-30T06:26:14;11.80;99.90
10046;DHT22;5063;50.878;4.742;2023-09-30T06:28:42;11.80;99.90
10046;DHT22;5063;50.878;4.742;2023-09-30T06:31:08;11.90;99.90
10046;DHT22;5063;50.878;4.742;2023-09-30T06:33:37;11.90;99.90
10046;DHT22;5063;50.878;4.742;2023-09-30T06:36:10;12.10;99.90
10046;DHT22;5063;50.878;4.742;2023-09-30T06:38:37;12.10;99.90
10046;DHT22;5063;50.878;4.742;2023-09-30T06:41:07;12.20;99.90
10046;DHT22;5063;50.878;4.742;2023-09-30T06:43:33;12.30;99.90
10046;DHT22;5063;50.878;4.742;2023-09-30T06:46:08;12.40;99.90
10046;DHT22;5063;50.878;4.742;2023-09-30T06:48:37;12.90;99.90
10046;DHT22;5063;50.878;4.742;2023-09-30T06:51:05;13.50;99.90
10046;DHT22;5063;50.878;4.742;2023-09-30T06:53:31;14.00;99.90
10046;DHT22;5063;50.878;4.742;2023-09-30T06:55:57;14.50;99.90
10046;DHT22;5063;50.878;4.742;2023-09-30T06:58:22;15.00;99.90
10046;DHT22;5063;50.878;4.742;2023-09-30T07:00:52;15.30;99.90
10046;DHT22;5063;50.878;4.742;2023-09-30T07:03:21;15.50;99.90
10046;DHT22;5063;50.878;4.742;2023-09-30T07:05:46;15.80;99.90
10046;DHT22;5063;50.878;4.742;2023-09-30T07:08:16;16.10;99.90
10046;DHT22;5063;50.878;4.742;2023-09-30T07:10:43;16.60;99.90
10046;DHT22;5063;50.878;4.742;2023-09-30T07:13:09;17.20;99.90
10046;DHT22;5063;50.878;4.742;2023-09-30T07:15:35;17.90;99.90
10046;DHT22;5063;50.878;4.742;2023-09-30T07:18:00;18.40;99.90
10046;DHT22;5063;50.878;4.742;2023-09-30T07:20:26;18.90;99.90
10046;DHT22;5063;50.878;4.742;2023-09-30T07:22:52;19.10;99.90
10046;DHT22;5063;50.878;4.742;2023-09-30T07:25:18;19.20;99.90
10046;DHT22;5063;50.878;4.742;2023-09-30T07:27:44;19.50;99.90
10046;DHT22;5063;50.878;4.742;2023-09-30T07:30:11;19.90;99.90
10046;DHT22;5063;50.878;4.742;2023-09-30T07:32:38;20.00;99.90
10046;DHT22;5063;50.878;4.742;2023-09-30T07:35:04;20.10;99.90
10046;DHT22;5063;50.878;4.742;2023-09-30T07:37:30;20.30;99.90
10046;DHT22;5063;50.878;4.742;2023-09-30T07:39:55;20.40;99.90
10046;DHT22;5063;50.878;4.742;2023-09-30T07:42:21;20.40;99.90
10046;DHT22;5063;50.878;4.742;2023-09-30T07:44:48;19.80;99.90
10046;DHT22;5063;50.878;4.742;2023-09-30T07:47:14;19.10;99.90
10046;DHT22;5063;50.878;4.742;2023-09-30T07:49:40;18.40;99.90
10046;DHT22;5063;50.878;4.742;2023-09-30T07:52:06;17.80;99.90
10046;DHT22;5063;50.878;4.742;2023-09-30T07:54:31;17.20;99.90
10046;DHT22;5063;50.878;4.742;2023-09-30T07:56:57;16.90;99.90
10046;DHT22;5063;50.878;4.742;2023-09-30T07:59:24;16.70;99.90
10046;DHT22;5063;50.878;4.742;2023-09-30T08:01:51;16.50;99.90
10046;DHT22;5063;50.878;4.742;2023-09-30T08:04:18;16.40;99.90
10046;DHT22;5063;50.878;4.742;2023-09-30T08:06:44;16.40;99.90
10046;DHT22;5063;50.878;4.742;2023-09-30T08:09:13;16.10;99.90
10046;DHT22;5063;50.878;4.742;2023-09-30T08:11:38;16.00;99.90
10046;DHT22;5063;50.878;4.742;2023-09-30T08:14:05;16.00;99.90
10046;DHT22;5063;50.878;4.742;2023-09-30T08:16:36;16.00;99.90
10046;DHT22;5063;50.878;4.742;2023-09-30T08:19:02;16.10;99.90
10046;DHT22;5063;50.878;4.742;2023-09-30T08:21:29;16.40;99.90
10046;DHT22;5063;50.878;4.742;2023-09-30T08:23:56;16.40;99.90
10046;DHT22;5063;50.878;4.742;2023-09-30T08:26:22;16.30;99.90
10046;DHT22;5063;50.878;4.742;2023-09-30T08:28:48;16.50;99.90
10046;DHT22;5063;50.878;4.742;2023-09-30T08:31:14;16.90;99.90
10046;DHT22;5063;50.878;4.742;2023-09-30T08:33:39;17.70;99.90
10046;DHT22;5063;50.878;4.742;2023-09-30T08:36:07;18.60;99.90
10046;DHT22;5063;50.878;4.742;2023-09-30T08:38:37;19.50;99.90
10046;DHT22;5063;50.878;4.742;2023-09-30T08:41:04;19.80;99.90
10046;DHT22;5063;50.878;4.742;2023-09-30T08:43:30;20.40;99.90
10046;DHT22;5063;50.878;4.742;2023-09-30T08:46:00;20.70;99.90
10046;DHT22;5063;50.878;4.742;2023-09-30T08:48:28;20.80;99.90
10046;DHT22;5063;50.878;4.742;2023-09-30T08:50:56;21.10;99.90
10046;DHT22;5063;50.878;4.742;2023-09-30T08:53:23;20.80;99.90
10046;DHT22;5063;50.878;4.742;2023-09-30T08:55:52;20.00;99.90
10046;DHT22;5063;50.878;4.742;2023-09-30T08:58:19;19.50;99.90
10046;DHT22;5063;50.878;4.742;2023-09-30T09:00:45;19.10;99.90
10046;DHT22;5063;50.878;4.742;2023-09-30T09:03:11;18.60;99.90
10046;DHT22;5063;50.878;4.742;2023-09-30T09:05:37;18.30;99.90
10046;DHT22;5063;50.878;4.742;2023-09-30T09:08:02;18.10;99.90
10046;DHT22;5063;50.878;4.742;2023-09-30T09:10:28;17.90;99.90
10046;DHT22;5063;50.878;4.742;2023-09-30T09:12:58;17.90;99.90
10046;DHT22;5063;50.878;4.742;2023-09-30T09:15:28;18.00;99.90
10046;DHT22;5063;50.878;4.742;2023-09-30T09:17:54;18.10;99.90
10046;DHT22;5063;50.878;4.742;2023-09-30T09:20:22;18.10;99.90
10046;DHT22;5063;50.878;4.742;2023-09-30T09:22:55;18.00;99.90
10046;DHT22;5063;50.878;4.742;2023-09-30T09:25:22;18.00;99.90
10046;DHT22;5063;50.878;4.742;2023-09-30T09:27:49;18.10;99.90
10046;DHT22;5063;50.878;4.742;2023-09-30T09:30:24;18.20;99.90
10046;DHT22;5063;50.878;4.742;2023-09-30T09:33:08;18.30;99.90
10046;DHT22;5063;50.878;4.742;2023-09-30T09:35:35;18.30;99.90
10046;DHT22;5063;50.878;4.742;2023-09-30T09:38:04;18.40;99.90
10046;DHT22;5063;50.878;4.742;2023-09-30T09:40:34;18.40;99.90
10046;DHT22;5063;50.878;4.742;2023-09-30T09:43:01;18.40;99.90
10046;DHT22;5063;50.878;4.742;2023-09-30T09:45:33;18.30;99.90
10046;DHT22;5063;50.878;4.742;2023-09-30T09:48:00;18.20;99.90
10046;DHT22;5063;50.878;4.742;2023-09-30T09:50:26;18.20;99.90
10046;DHT22;5063;50.878;4.742;2023-09-30T09:52:52;18.30;99.90
10046;DHT22;5063;50.878;4.742;2023-09-30T09:55:22;18.40;99.90
10046;DHT22;5063;50.878;4.742;2023-09-30T09:57:48;18.60;99.90
10046;DHT22;5063;50.878;4.742;2023-09-30T10:00:19;18.60;99.90
10046;DHT22;5063;50.878;4.742;2023-09-30T10:02:46;18.70;99.90
10046;DHT22;5063;50.878;4.742;2023-09-30T10:05:14;18.50;99.90
10046;DHT22;5063;50.878;4.742;2023-09-30T10:07:47;18.70;99.90
10046;DHT22;5063;50.878;4.742;2023-09-30T10:10:19;18.80;99.90
10046;DHT22;5063;50.878;4.742;2023-09-30T10:12:45;18.80;99.90
10046;DHT22;5063;50.878;4.742;2023-09-30T10:15:38;19.10;99.90
10046;DHT22;5063;50.878;4.742;2023-09-30T10:18:11;19.10;99.90
10046;DHT22;5063;50.878;4.742;2023-09-30T10:20:41;18.90;99.90
10046;DHT22;5063;50.878;4.742;2023-09-30T10:23:24;18.60;99.90
10046;DHT22;5063;50.878;4.742;2023-09-30T10:25:52;18.50;99.90
10046;DHT22;5063;50.878;4.742;2023-09-30T10:28:39;18.40;99.90
10046;DHT22;5063;50.878;4.742;2023-09-30T10:31:20;18.30;99.90
10046;DHT22;5063;50.878;4.742;2023-09-30T10:39:01;18.80;99.90
10046;DHT22;5063;50.878;4.742;2023-09-30T10:46:52;19.40;99.90
10046;DHT22;5063;50.878;4.742;2023-09-30T10:51:57;19.50;99.90
10046;DHT22;5063;50.878;4.742;2023-09-30T10:54:26;19.50;99.90
10046;DHT22;5063;50.878;4.742;2023-09-30T10:56:53;19.60;99.90
10046;DHT22;5063;50.878;4.742;2023-09-30T10:59:21;19.50;99.90
10046;DHT22;5063;50.878;4.742;2023-09-30T11:01:49;19.60;99.90
10046;DHT22;5063;50.878;4.742;2023-09-30T11:04:15;19.80;99.90
10046;DHT22;5063;50.878;4.742;2023-09-30T11:06:42;20.00;99.90
10046;DHT22;5063;50.878;4.742;2023-09-30T11:09:08;20.30;99.90
10046;DHT22;5063;50.878;4.742;2023-09-30T11:11:43;20.40;99.90
10046;DHT22;5063;50.878;4.742;2023-09-30T11:14:21;20.30;99.90
10046;DHT22;5063;50.878;4.742;2023-09-30T11:16:48;20.40;99.90
10046;DHT22;5063;50.878;4.742;2023-09-30T11:19:15;20.40;99.90
10046;DHT22;5063;50.878;4.742;2023-09-30T11:21:41;20.60;99.90
10046;DHT22;5063;50.878;4.742;2023-09-30T11:24:09;20.60;99.90
10046;DHT22;5063;50.878;4.742;2023-09-30T11:26:35;20.60;99.90
10046;DHT22;5063;50.878;4.742;2023-09-30T11:29:12;20.50;99.90
10046;DHT22;5063;50.878;4.742;2023-09-30T11:31:42;20.70;99.90
10046;DHT22;5063;50.878;4.742;2023-09-30T11:34:09;20.80;99.90
10046;DHT22;5063;50.878;4.742;2023-09-30T11:36:38;21.00;99.90
10046;DHT22;5063;50.878;4.742;2023-09-30T11:39:05;21.20;99.90
10046;DHT22;5063;50.878;4.742;2023-09-30T11:41:35;21.20;99.90
10046;DHT22;5063;50.878;4.742;2023-09-30T11:44:07;21.10;99.90
10046;DHT22;5063;50.878;4.742;2023-09-30T11:51:52;20.70;99.90
10046;DHT22;5063;50.878;4.742;2023-09-30T11:54:18;20.60;99.90
10046;DHT22;5063;50.878;4.742;2023-09-30T11:56:43;20.60;99.90
10046;DHT22;5063;50.878;4.742;2023-09-30T11:59:10;20.50;99.90
10046;DHT22;5063;50.878;4.742;2023-09-30T12:01:39;20.50;99.90
10046;DHT22;5063;50.878;4.742;2023-09-30T12:04:05;20.50;99.90
10046;DHT22;5063;50.878;4.742;2023-09-30T12:06:32;20.50;99.90
10046;DHT22;5063;50.878;4.742;2023-09-30T12:09:00;20.50;99.90
10046;DHT22;5063;50.878;4.742;2023-09-30T12:11:25;20.30;99.90
10046;DHT22;5063;50.878;4.742;2023-09-30T12:13:51;20.50;99.90
10046;DHT22;5063;50.878;4.742;2023-09-30T12:16:17;20.50;99.90
10046;DHT22;5063;50.878;4.742;2023-09-30T12:18:44;20.50;99.90
10046;DHT22;5063;50.878;4.742;2023-09-30T12:21:11;20.40;99.90
10046;DHT22;5063;50.878;4.742;2023-09-30T12:23:37;20.50;99.90
10046;DHT22;5063;50.878;4.742;2023-09-30T12:26:03;20.60;99.90
10046;DHT22;5063;50.878;4.742;2023-09-30T12:28:32;20.80;99.90
10046;DHT22;5063;50.878;4.742;2023-09-30T12:31:01;20.90;99.90
10046;DHT22;5063;50.878;4.742;2023-09-30T12:33:29;21.10;99.90
10046;DHT22;5063;50.878;4.742;2023-09-30T12:35:56;21.20;99.90
10046;DHT22;5063;50.878;4.742;2023-09-30T12:38:26;21.40;99.90
10046;DHT22;5063;50.878;4.742;2023-09-30T12:40:54;21.30;99.90
10046;DHT22;5063;50.878;4.742;2023-09-30T12:43:21;21.20;99.90
10046;DHT22;5063;50.878;4.742;2023-09-30T12:45:47;21.00;99.90
10046;DHT22;5063;50.878;4.742;2023-09-30T12:48:13;21.10;99.90
10046;DHT22;5063;50.878;4.742;2023-09-30T12:50:40;21.10;99.90
10046;DHT22;5063;50.878;4.742;2023-09-30T12:53:06;21.10;99.90
10046;DHT22;5063;50.878;4.742;2023-09-30T12:55:32;21.20;99.90
10046;DHT22;5063;50.878;4.742;2023-09-30T12:57:58;21.30;99.90
10046;DHT22;5063;50.878;4.742;2023-09-30T13:00:25;21.20;99.90
10046;DHT22;5063;50.878;4.742;2023-09-30T13:02:52;21.30;99.90
10046;DHT22;5063;50.878;4.742;2023-09-30T13:05:18;21.40;99.90
10046;DHT22;5063;50.878;4.742;2023-09-30T13:07:45;21.10;99.90
10046;DHT22;5063;50.878;4.742;2023-09-30T13:10:12;21.10;99.90
10046;DHT22;5063;50.878;4.742;2023-09-30T13:12:38;21.30;99.90
10046;DHT22;5063;50.878;4.742;2023-09-30T13:15:05;21.70;99.90
10046;DHT22;5063;50.878;4.742;2023-09-30T13:17:31;21.80;99.90
10046;DHT22;5063;50.878;4.742;2023-09-30T13:19:57;21.90;99.90
10046;DHT22;5063;50.878;4.742;2023-09-30T13:22:23;22.00;99.90
10046;DHT22;5063;50.878;4.742;2023-09-30T13:24:49;22.30;99.90
10046;DHT22;5063;50.878;4.742;2023-09-30T13:27:14;22.50;99.90
10046;DHT22;5063;50.878;4.742;2023-09-30T13:29:45;22.60;99.90
10046;DHT22;5063;50.878;4.742;2023-09-30T13:32:10;22.80;99.90
10046;DHT22;5063;50.878;4.742;2023-09-30T13:34:36;22.70;99.90
10046;DHT22;5063;50.878;4.742;2023-09-30T13:37:02;22.70;99.90
10046;DHT22;5063;50.878;4.742;2023-09-30T13:39:27;22.30;99.90
10046;DHT22;5063;50.878;4.742;2023-09-30T13:41:54;22.20;99.90
10046;DHT22;5063;50.878;4.742;2023-09-30T13:44:20;22.40;99.90
10046;DHT22;5063;50.878;4.742;2023-09-30T13:46:46;22.70;99.90
10046;DHT22;5063;50.878;4.742;2023-09-30T13:49:13;22.90;99.90
10046;DHT22;5063;50.878;4.742;2023-09-30T13:51:39;22.80;99.90
10046;DHT22;5063;50.878;4.742;2023-09-30T13:54:05;22.80;99.90
10046;DHT22;5063;50.878;4.742;2023-09-30T13:56:33;22.80;99.90
10046;DHT22;5063;50.878;4.742;2023-09-30T13:58:58;22.70;99.90
10046;DHT22;5063;50.878;4.742;2023-09-30T14:01:25;22.50;99.90
10046;DHT22;5063;50.878;4.742;2023-09-30T14:03:51;22.20;99.90
10046;DHT22;5063;50.878;4.742;2023-09-30T14:06:21;22.00;99.90
10046;DHT22;5063;50.878;4.742;2023-09-30T14:08:46;22.00;99.90
10046;DHT22;5063;50.878;4.742;2023-09-30T14:11:12;22.00;99.90
10046;DHT22;5063;50.878;4.742;2023-09-30T14:13:38;22.10;99.90
10046;DHT22;5063;50.878;4.742;2023-09-30T14:16:05;22.10;99.90
10046;DHT22;5063;50.878;4.742;2023-09-30T14:18:32;22.30;99.90
10046;DHT22;5063;50.878;4.742;2023-09-30T14:20:58;22.50;99.90
10046;DHT22;5063;50.878;4.742;2023-09-30T14:23:24;22.60;99.90
10046;DHT22;5063;50.878;4.742;2023-09-30T14:25:53;22.60;99.90
10046;DHT22;5063;50.878;4.742;2023-09-30T14:28:20;22.40;99.90
10046;DHT22;5063;50.878;4.742;2023-09-30T14:30:45;22.40;99.90
10046;DHT22;5063;50.878;4.742;2023-09-30T14:33:11;22.30;99.90
10046;DHT22;5063;50.878;4.742;2023-09-30T14:35:37;22.40;99.90
10046;DHT22;5063;50.878;4.742;2023-09-30T14:38:03;22.30;99.90
10046;DHT22;5063;50.878;4.742;2023-09-30T14:40:30;22.30;99.90
10046;DHT22;5063;50.878;4.742;2023-09-30T14:42:55;22.20;99.90
10046;DHT22;5063;50.878;4.742;2023-09-30T14:45:21;22.30;99.90
10046;DHT22;5063;50.878;4.742;2023-09-30T14:47:47;22.30;99.90
10046;DHT22;5063;50.878;4.742;2023-09-30T14:50:13;22.20;99.90
10046;DHT22;5063;50.878;4.742;2023-09-30T14:52:39;21.80;99.90
10046;DHT22;5063;50.878;4.742;2023-09-30T14:55:05;21.80;99.90
10046;DHT22;5063;50.878;4.742;2023-09-30T14:57:31;21.70;99.90
10046;DHT22;5063;50.878;4.742;2023-09-30T15:00:00;21.40;99.90
10046;DHT22;5063;50.878;4.742;2023-09-30T15:02:25;21.50;99.90
10046;DHT22;5063;50.878;4.742;2023-09-30T15:04:52;21.50;99.90
10046;DHT22;5063;50.878;4.742;2023-09-30T15:07:18;21.70;99.90
10046;DHT22;5063;50.878;4.742;2023-09-30T15:09:44;21.80;99.90
10046;DHT22;5063;50.878;4.742;2023-09-30T15:12:10;21.80;99.90
10046;DHT22;5063;50.878;4.742;2023-09-30T15:14:35;21.80;99.90
10046;DHT22;5063;50.878;4.742;2023-09-30T15:17:01;21.80;99.90
10046;DHT22;5063;50.878;4.742;2023-09-30T15:19:27;21.70;99.90
10046;DHT22;5063;50.878;4.742;2023-09-30T15:21:52;21.60;99.90
10046;DHT22;5063;50.878;4.742;2023-09-30T15:24:18;21.60;99.90
10046;DHT22;5063;50.878;4.742;2023-09-30T15:26:43;21.60;99.90
10046;DHT22;5063;50.878;4.742;2023-09-30T15:29:09;21.60;99.90
10046;DHT22;5063;50.878;4.742;2023-09-30T15:31:35;21.60;99.90
10046;DHT22;5063;50.878;4.742;2023-09-30T15:34:01;21.40;99.90
10046;DHT22;5063;50.878;4.742;2023-09-30T15:36:26;21.40;99.90
10046;DHT22;5063;50.878;4.742;2023-09-30T15:38:52;21.20;99.90
10046;DHT22;5063;50.878;4.742;2023-09-30T15:41:25;21.10;99.90
10046;DHT22;5063;50.878;4.742;2023-09-30T15:43:51;20.90;99.90
10046;DHT22;5063;50.878;4.742;2023-09-30T15:46:17;20.60;99.90
10046;DHT22;5063;50.878;4.742;2023-09-30T15:48:43;20.40;99.90
10046;DHT22;5063;50.878;4.742;2023-09-30T15:51:08;20.20;99.90
10046;DHT22;5063;50.878;4.742;2023-09-30T15:53:34;20.10;99.90
10046;DHT22;5063;50.878;4.742;2023-09-30T15:56:02;20.00;99.90
10046;DHT22;5063;50.878;4.742;2023-09-30T15:58:28;19.90;99.90
10046;DHT22;5063;50.878;4.742;2023-09-30T16:00:56;19.90;99.90
10046;DHT22;5063;50.878;4.742;2023-09-30T16:03:22;19.90;99.90
10046;DHT22;5063;50.878;4.742;2023-09-30T16:05:48;19.80;99.90